createdAt,value
2023-05-02T00:05:52.255Z,5.55
2023-05-02T00:15:55.223Z,4.95
2023-05-02T00:26:00.469Z,5.03
2023-05-02T00:36:02.375Z,5.35
2023-05-02T00:46:04.553Z,5.25
2023-05-02T00:56:17.874Z,5.10
2023-05-02T01:06:34.821Z,4.55
2023-05-02T01:16:42.405Z,5.00
2023-05-02T01:26:59.535Z,4.80
2023-05-02T01:37:02.481Z,4.63
2023-05-02T01:47:06.093Z,5.55
2023-05-02T01:57:32.942Z,5.22
2023-05-02T02:07:36.360Z,4.72
2023-05-02T02:17:44.046Z,5.20
2023-05-02T02:27:47.520Z,4.85
2023-05-02T02:37:59.317Z,4.90
2023-05-02T02:48:36.230Z,5.40
2023-05-02T02:58:54.058Z,5.78
2023-05-02T03:08:56.732Z,5.95
2023-05-02T03:18:58.740Z,5.93
2023-05-02T03:29:00.677Z,5.68
2023-05-02T03:39:03.664Z,5.20
2023-05-02T03:49:05.636Z,5.43
2023-05-02T03:59:12.432Z,6.10
2023-05-02T04:09:15.513Z,5.60
2023-05-02T04:19:30.602Z,5.55
2023-05-02T04:29:32.584Z,5.18
2023-05-02T04:39:52.722Z,4.85
2023-05-02T04:50:02.161Z,4.93
2023-05-02T05:00:06.155Z,4.65
2023-05-02T05:10:08.848Z,5.03
2023-05-02T05:20:25.034Z,5.40
2023-05-02T05:30:27.233Z,5.25
2023-05-02T05:40:39.129Z,4.97
2023-05-02T05:50:43.137Z,4.88
2023-05-02T06:01:09.896Z,4.22
2023-05-02T06:11:11.987Z,4.50
2023-05-02T06:21:14.981Z,3.78
2023-05-02T06:31:17.298Z,3.50
2023-05-02T06:41:21.472Z,3.15
2023-05-02T06:51:32.456Z,3.72
2023-05-02T07:01:34.534Z,2.70
2023-05-02T07:11:43.631Z,2.80
2023-05-02T07:22:00.836Z,2.40
2023-05-02T07:32:03.410Z,2.25
2023-05-02T07:42:06.796Z,2.45
2023-05-02T07:52:15.997Z,2.17
2023-05-02T08:02:20.503Z,2.65
2023-05-02T08:12:22.792Z,3.85
2023-05-02T08:22:24.922Z,1.33
2023-05-02T08:32:27.212Z,2.22
2023-05-02T08:42:47.437Z,3.63
2023-05-02T08:52:54.533Z,3.50
2023-05-02T09:03:30.911Z,3.38
2023-05-02T09:13:43.200Z,2.67
2023-05-02T09:23:48.571Z,4.85
2023-05-02T09:33:50.574Z,4.20
2023-05-02T09:44:19.928Z,1.95
2023-05-02T09:54:38.262Z,3.88
2023-05-02T10:04:41.161Z,5.45
2023-05-02T10:14:58.615Z,4.50
2023-05-02T10:25:06.946Z,4.95
2023-05-02T10:35:09.438Z,5.25
2023-05-02T10:45:34.094Z,4.47
2023-05-02T10:55:37.367Z,6.47
2023-05-02T11:06:08.861Z,6.55
2023-05-02T11:16:10.918Z,7.75
2023-05-02T11:26:23.361Z,7.15
2023-05-02T11:36:40.891Z,6.68
2023-05-02T11:46:44.983Z,6.40
2023-05-02T11:56:49.074Z,8.45
2023-05-02T12:07:10.128Z,8.50
2023-05-02T12:17:13.069Z,8.52
2023-05-02T12:27:21.332Z,6.78
2023-05-02T12:37:28.641Z,5.78
2023-05-02T12:47:46.669Z,5.55
2023-05-02T12:58:05.777Z,5.05
2023-05-02T13:18:09.738Z,5.82
2023-05-02T13:28:21.643Z,4.47
2023-05-02T13:38:24.618Z,5.78
2023-05-02T13:48:51.886Z,4.43
2023-05-02T13:59:05.547Z,4.78
2023-05-02T14:09:13.500Z,5.05
2023-05-02T14:19:15.664Z,5.72
2023-05-02T14:29:20.036Z,4.32
2023-05-02T14:39:22.350Z,4.30
2023-05-02T14:49:33.378Z,4.80
2023-05-02T14:59:40.521Z,5.47
2023-05-02T15:09:43.586Z,3.65
2023-05-02T15:19:47.764Z,5.15
2023-05-02T15:30:12.375Z,5.15
2023-05-02T15:40:19.531Z,4.82
2023-05-02T15:50:48.675Z,4.80
2023-05-02T16:00:52.693Z,4.68
2023-05-02T16:11:02.170Z,3.58
2023-05-02T16:21:05.689Z,5.35
2023-05-02T16:31:11.336Z,5.10
2023-05-02T16:41:13.703Z,4.60
2023-05-02T16:51:15.712Z,4.43
2023-05-02T17:01:42.984Z,4.80
2023-05-02T17:11:45.042Z,4.95
2023-05-02T17:21:47.171Z,4.70
2023-05-02T17:31:52.523Z,4.25
2023-05-02T17:41:54.706Z,4.40
2023-05-02T17:51:57.727Z,4.93
2023-05-02T18:02:12.310Z,4.47
2023-05-02T18:12:14.387Z,5.18
2023-05-02T18:22:38.637Z,7.32
2023-05-02T18:32:49.867Z,6.28
2023-05-02T18:43:37.334Z,5.80
2023-05-02T18:54:04.812Z,4.57
2023-05-02T19:04:32.435Z,4.40
2023-05-02T19:14:36.980Z,6.75
2023-05-02T19:24:45.829Z,5.80
2023-05-02T19:34:52.050Z,3.22
2023-05-02T19:44:55.241Z,2.90
2023-05-02T19:54:57.401Z,2.33
2023-05-02T20:04:59.784Z,5.45
2023-05-02T20:15:08.055Z,6.57
2023-05-02T20:25:20.635Z,6.75
2023-05-02T20:35:31.909Z,6.55
2023-05-02T20:45:35.032Z,5.72
2023-05-02T20:55:37.013Z,4.88
2023-05-02T21:06:04.229Z,3.85
2023-05-02T21:16:24.726Z,1.88
2023-05-02T21:26:39.011Z,4.22
2023-05-02T21:36:43.504Z,3.88
2023-05-02T21:46:48.496Z,3.70
2023-05-02T21:56:56.340Z,1.80
2023-05-02T22:07:02.415Z,4.00
2023-05-02T22:17:10.306Z,1.20
2023-05-02T22:27:20.115Z,1.60
2023-05-02T22:37:26.281Z,2.28
2023-05-02T22:47:30.416Z,2.63
2023-05-02T22:57:34.438Z,2.00
2023-05-02T23:07:36.360Z,2.53
2023-05-02T23:17:39.958Z,0.93
2023-05-02T23:27:42.058Z,2.30
2023-05-02T23:37:47.135Z,1.90
2023-05-02T23:47:49.066Z,1.88
2023-05-02T23:57:51.965Z,1.65
